Terminal Aerodrome Forecast
Issued by NWS

Home | Current Version | Previous Version | Text Only | Print | Product List | Glossary On
Versions: 1 2 3 4 5 6 7 8 9 10 11 12 13 14 15 16 17 18 19 20 21 22 23
000
FTUS41 KPBZ 110940 AAA
TAFDUJ
TAF AMD
KDUJ 110940Z 1110/1206 22004KT 2SM -SN OVC025
     FM111300 16005KT 2SM -SN OVC008
     FM112300 15009KT 3SM -SN OVC015
     FM120300 19009KT 5SM -RASN OVC015=

USA.gov is the U.S. government's official web portal to all federal, state and local government web resources and services.